createdAt,value
2023-02-15T00:00:25.447Z,2.43
2023-02-15T00:03:00.258Z,2.48
2023-02-15T00:05:30.392Z,2.39
2023-02-15T00:07:59.776Z,2.41
2023-02-15T00:10:29.218Z,2.54
2023-02-15T00:12:58.627Z,2.56
2023-02-15T00:15:28.083Z,2.81
2023-02-15T00:18:00.590Z,3.04
2023-02-15T00:20:30.023Z,3.20
2023-02-15T00:22:59.436Z,3.13
2023-02-15T00:25:28.896Z,2.98
2023-02-15T00:27:58.322Z,3.24
2023-02-15T00:30:27.837Z,2.95
2023-02-15T00:32:59.969Z,3.02
2023-02-15T00:35:29.403Z,2.97
2023-02-15T00:37:59.873Z,3.19
2023-02-15T00:40:29.336Z,3.51
2023-02-15T00:42:59.660Z,3.38
2023-02-15T00:45:29.046Z,3.33
2023-02-15T00:48:01.023Z,3.36
2023-02-15T00:50:30.615Z,3.60
2023-02-15T00:53:00.047Z,3.34
2023-02-15T00:55:29.597Z,3.47
2023-02-15T00:57:59.009Z,3.46
2023-02-15T01:00:28.508Z,3.31
2023-02-15T01:02:57.883Z,3.33
2023-02-15T01:05:30.643Z,3.30
2023-02-15T01:08:00.107Z,3.83
2023-02-15T01:10:30.631Z,3.51
2023-02-15T01:13:00.254Z,3.32
2023-02-15T01:15:29.713Z,3.33
2023-02-15T01:17:59.331Z,3.46
2023-02-15T01:20:32.698Z,3.17
2023-02-15T01:23:02.126Z,3.18
2023-02-15T01:25:31.529Z,3.12
2023-02-15T01:28:01.006Z,3.20
2023-02-15T01:30:30.702Z,3.46
2023-02-15T01:33:01.776Z,3.26
2023-02-15T01:35:33.820Z,3.63
2023-02-15T01:38:03.252Z,3.61
2023-02-15T01:40:32.777Z,3.59
2023-02-15T01:43:02.155Z,3.56
2023-02-15T01:45:33.406Z,3.03
2023-02-15T01:48:06.011Z,3.41
2023-02-15T01:50:40.442Z,3.19
2023-02-15T01:53:12.362Z,3.59
2023-02-15T01:55:43.895Z,3.69
2023-02-15T01:58:13.451Z,3.76
2023-02-15T02:00:42.829Z,3.80
2023-02-15T02:03:12.344Z,3.68
2023-02-15T02:05:44.775Z,3.48
2023-02-15T02:08:14.603Z,3.33
2023-02-15T02:10:44.100Z,3.20
2023-02-15T02:13:13.662Z,3.03
2023-02-15T02:15:47.288Z,3.37
2023-02-15T02:18:25.514Z,3.26
2023-02-15T02:21:27.430Z,3.46
2023-02-15T02:24:10.531Z,3.45
2023-02-15T02:27:01.651Z,3.18
2023-02-15T02:29:44.505Z,3.47
2023-02-15T02:32:42.955Z,3.60
2023-02-15T02:35:20.068Z,3.42
2023-02-15T02:37:54.037Z,3.54
2023-02-15T02:40:28.638Z,3.57
2023-02-15T02:43:01.720Z,3.95
2023-02-15T02:45:35.886Z,3.81
2023-02-15T02:48:08.247Z,3.78
2023-02-15T02:50:43.137Z,3.79
2023-02-15T02:53:13.313Z,4.04
2023-02-15T02:55:45.607Z,3.46
2023-02-15T02:58:18.961Z,3.66
2023-02-15T03:00:51.379Z,3.90
2023-02-15T03:03:25.054Z,3.57
2023-02-15T03:05:59.544Z,3.47
2023-02-15T03:08:33.889Z,3.53
2023-02-15T03:11:04.606Z,3.89
2023-02-15T03:13:34.142Z,3.87
2023-02-15T03:16:17.075Z,3.78
2023-02-15T03:18:53.825Z,3.92
2023-02-15T03:21:29.764Z,3.98
2023-02-15T03:24:04.364Z,3.52
2023-02-15T03:26:34.359Z,3.44
2023-02-15T03:29:04.137Z,3.63
2023-02-15T03:31:36.509Z,3.61
2023-02-15T03:34:08.556Z,3.37
2023-02-15T03:36:45.528Z,3.59
2023-02-15T03:39:21.141Z,3.83
2023-02-15T03:41:56.749Z,3.85
2023-02-15T03:44:31.708Z,3.88
2023-02-15T03:47:06.158Z,3.50
2023-02-15T03:49:40.898Z,3.56
2023-02-15T03:52:14.889Z,3.78
2023-02-15T03:54:47.430Z,3.61
2023-02-15T03:57:35.225Z,3.64
2023-02-15T04:00:19.168Z,3.90
2023-02-15T04:02:56.688Z,3.43
2023-02-15T04:05:26.422Z,3.25
2023-02-15T04:07:58.409Z,3.35
2023-02-15T04:10:40.324Z,3.36
2023-02-15T04:13:09.796Z,3.60
2023-02-15T04:15:51.701Z,3.44
2023-02-15T04:18:21.149Z,3.75
2023-02-15T04:21:03.372Z,3.76
2023-02-15T04:23:48.673Z,3.51
2023-02-15T04:26:18.317Z,3.46
2023-02-15T04:28:47.735Z,3.54
2023-02-15T04:31:17.253Z,3.44
2023-02-15T04:33:46.767Z,3.41
2023-02-15T04:36:16.286Z,3.26
2023-02-15T04:38:48.343Z,3.17
2023-02-15T04:41:17.716Z,3.51
2023-02-15T04:43:47.131Z,3.32
2023-02-15T04:46:16.513Z,3.01
2023-02-15T04:48:45.901Z,2.79
2023-02-15T04:51:15.372Z,2.65
2023-02-15T04:53:44.769Z,2.56
2023-02-15T04:56:16.826Z,2.47
2023-02-15T04:58:46.204Z,2.45
2023-02-15T05:01:15.830Z,2.42
2023-02-15T05:03:45.297Z,2.46
2023-02-15T05:06:14.773Z,2.48
2023-02-15T05:08:44.213Z,2.52
2023-02-15T05:11:16.170Z,2.58
2023-02-15T05:13:45.572Z,2.37
2023-02-15T05:16:15.005Z,2.34
2023-02-15T05:18:44.430Z,2.38
2023-02-15T05:21:14.603Z,2.44
2023-02-15T05:23:44.054Z,2.45
2023-02-15T05:26:29.651Z,2.77
2023-02-15T05:28:59.033Z,2.83
2023-02-15T05:31:28.995Z,3.07
2023-02-15T05:33:58.589Z,2.88
2023-02-15T05:36:29.224Z,2.88
2023-02-15T05:38:58.682Z,3.04
2023-02-15T05:41:30.730Z,2.88
2023-02-15T05:44:00.139Z,2.55
2023-02-15T05:46:29.611Z,2.61
2023-02-15T05:48:59.086Z,2.35
2023-02-15T05:51:28.577Z,2.21
2023-02-15T05:53:58.024Z,2.40
2023-02-15T05:56:30.127Z,2.45
2023-02-15T05:58:59.502Z,2.66
2023-02-15T06:01:28.950Z,3.10
2023-02-15T06:03:58.432Z,2.96
2023-02-15T06:06:27.840Z,3.04
2023-02-15T06:08:57.244Z,2.67
2023-02-15T06:11:26.607Z,2.27
2023-02-15T06:13:58.594Z,1.92
2023-02-15T06:16:27.991Z,1.90
2023-02-15T06:18:57.540Z,2.07
2023-02-15T06:21:27.031Z,1.93
2023-02-15T06:23:56.427Z,1.81
2023-02-15T06:26:26.044Z,1.84
2023-02-15T06:28:58.069Z,1.78
2023-02-15T06:31:27.569Z,2.16
2023-02-15T06:34:01.842Z,2.73
2023-02-15T06:36:31.581Z,3.16
2023-02-15T06:39:01.373Z,3.05
2023-02-15T06:41:30.861Z,2.92
2023-02-15T06:44:03.244Z,3.02
2023-02-15T06:46:32.662Z,3.00
2023-02-15T06:49:02.061Z,2.94
2023-02-15T06:51:31.436Z,3.26
2023-02-15T06:54:00.890Z,3.01
2023-02-15T06:56:30.387Z,2.64
2023-02-15T06:58:59.904Z,2.49
2023-02-15T07:01:32.316Z,2.72
2023-02-15T07:04:01.745Z,2.95
2023-02-15T07:06:34.780Z,2.93
2023-02-15T07:09:05.173Z,2.84
2023-02-15T07:11:55.909Z,3.30
2023-02-15T07:14:27.158Z,2.79
2023-02-15T07:17:00.681Z,2.66
2023-02-15T07:19:30.219Z,2.48
2023-02-15T07:22:01.587Z,2.27
2023-02-15T07:24:31.036Z,2.52
2023-02-15T07:27:00.642Z,3.17
2023-02-15T07:29:30.328Z,3.18
2023-02-15T07:32:02.361Z,2.90
2023-02-15T07:34:31.883Z,2.64
2023-02-15T07:37:01.607Z,2.92
2023-02-15T07:39:31.011Z,2.86
2023-02-15T07:42:00.692Z,3.36
2023-02-15T07:44:30.074Z,3.87
2023-02-15T07:47:02.078Z,4.07
2023-02-15T07:49:31.711Z,4.20
2023-02-15T07:52:01.189Z,3.34
2023-02-15T07:54:30.624Z,2.88
2023-02-15T07:57:00.092Z,3.11
2023-02-15T07:59:29.578Z,2.97
2023-02-15T08:01:59.349Z,2.63
2023-02-15T08:04:32.185Z,2.58
2023-02-15T08:07:01.569Z,2.56
2023-02-15T08:09:30.989Z,2.90
2023-02-15T08:12:00.353Z,2.83
2023-02-15T08:14:31.303Z,2.67
2023-02-15T08:17:06.000Z,2.65
2023-02-15T08:19:38.300Z,2.43
2023-02-15T08:22:09.339Z,2.20
2023-02-15T08:24:40.341Z,2.56
2023-02-15T08:27:11.333Z,2.61
2023-02-15T08:29:43.187Z,2.71
2023-02-15T08:32:14.049Z,2.58
2023-02-15T08:34:46.358Z,2.65
2023-02-15T08:37:15.780Z,2.65
2023-02-15T08:39:46.964Z,2.59
2023-02-15T08:42:16.399Z,2.52
2023-02-15T08:44:45.859Z,2.54
2023-02-15T08:47:15.270Z,2.39
2023-02-15T08:49:47.234Z,2.27
2023-02-15T08:52:16.854Z,2.01
2023-02-15T08:54:46.317Z,2.06
2023-02-15T08:57:15.759Z,1.93
2023-02-15T08:59:45.220Z,2.05
2023-02-15T09:02:14.789Z,1.87
2023-02-15T09:04:46.801Z,2.11
2023-02-15T09:07:16.234Z,2.11
2023-02-15T09:09:46.436Z,2.25
2023-02-15T09:12:15.876Z,2.48
2023-02-15T09:14:45.304Z,2.55
2023-02-15T09:17:16.097Z,2.45
2023-02-15T09:19:48.179Z,2.35
2023-02-15T09:22:17.608Z,2.26
2023-02-15T09:24:47.164Z,2.54
2023-02-15T09:27:16.684Z,2.68
2023-02-15T09:29:46.153Z,2.28
2023-02-15T09:32:18.600Z,1.83
2023-02-15T09:34:50.631Z,1.63
2023-02-15T09:37:20.054Z,1.63
2023-02-15T09:39:50.608Z,1.80
2023-02-15T09:42:34.558Z,2.01
2023-02-15T09:45:23.786Z,2.19
2023-02-15T09:48:11.194Z,2.17
2023-02-15T09:50:54.380Z,2.19
2023-02-15T09:53:33.763Z,2.04
2023-02-15T09:56:07.533Z,2.22
2023-02-15T09:58:44.454Z,2.29
2023-02-15T10:01:20.512Z,2.21
2023-02-15T10:04:00.901Z,1.96
2023-02-15T10:06:43.081Z,2.06
2023-02-15T10:09:31.874Z,2.17
2023-02-15T10:12:12.735Z,2.82
2023-02-15T10:15:00.166Z,4.03
2023-02-15T10:17:41.083Z,4.10
2023-02-15T10:20:19.052Z,3.22
2023-02-15T10:23:05.064Z,3.26
2023-02-15T10:25:41.596Z,2.95
2023-02-15T10:28:17.387Z,2.67
2023-02-15T10:30:51.547Z,2.73
2023-02-15T10:33:35.138Z,2.37
2023-02-15T10:36:13.549Z,2.31
2023-02-15T10:38:46.848Z,2.06
2023-02-15T10:41:26.936Z,2.20
2023-02-15T10:44:07.727Z,2.34
2023-02-15T10:46:55.219Z,2.47
2023-02-15T10:49:50.372Z,2.34
2023-02-15T10:52:31.568Z,2.28
2023-02-15T10:55:10.686Z,2.21
2023-02-15T10:57:48.951Z,2.06
2023-02-15T11:00:23.412Z,1.98
2023-02-15T11:03:06.662Z,1.98
2023-02-15T11:05:43.450Z,1.95
2023-02-15T11:08:14.148Z,2.06
2023-02-15T11:10:48.467Z,2.34
2023-02-15T11:13:20.702Z,2.29
2023-02-15T11:15:53.310Z,2.18
2023-02-15T11:18:27.697Z,2.33
2023-02-15T11:20:59.834Z,2.58
2023-02-15T11:23:30.295Z,2.59
2023-02-15T11:26:05.775Z,2.76
2023-02-15T11:28:38.494Z,2.83
2023-02-15T11:31:17.308Z,2.84
2023-02-15T11:33:50.462Z,2.93
2023-02-15T11:36:23.034Z,3.01
2023-02-15T11:38:56.085Z,2.74
2023-02-15T11:41:32.661Z,2.65
2023-02-15T11:44:04.663Z,2.80
2023-02-15T11:46:34.143Z,2.96
2023-02-15T11:49:04.005Z,3.02
2023-02-15T11:51:33.669Z,3.21
2023-02-15T11:54:03.344Z,3.63
2023-02-15T11:56:36.905Z,3.82
2023-02-15T11:59:10.063Z,3.91
2023-02-15T12:01:41.892Z,3.99
2023-02-15T12:04:17.204Z,3.92
2023-02-15T12:06:49.586Z,4.20
2023-02-15T12:09:23.740Z,4.09
2023-02-15T12:11:55.853Z,4.22
2023-02-15T12:14:25.288Z,4.31
2023-02-15T12:16:57.261Z,4.42
2023-02-15T12:19:33.867Z,4.65
2023-02-15T12:22:05.221Z,4.81
2023-02-15T12:24:36.988Z,4.88
2023-02-15T12:27:15.828Z,4.95
2023-02-15T12:29:46.754Z,5.03
2023-02-15T12:32:21.988Z,5.21
2023-02-15T12:34:51.643Z,5.38
2023-02-15T12:37:23.645Z,5.48
2023-02-15T12:39:58.516Z,5.69
2023-02-15T12:42:33.082Z,5.75
2023-02-15T12:45:04.891Z,6.04
2023-02-15T12:47:35.093Z,6.23
2023-02-15T12:50:18.005Z,5.99
2023-02-15T12:52:48.752Z,6.56
2023-02-15T12:55:24.480Z,6.71
2023-02-15T12:58:09.345Z,6.64
2023-02-15T13:00:38.791Z,6.54
2023-02-15T13:03:08.425Z,6.78
2023-02-15T13:05:42.085Z,7.33
2023-02-15T13:08:15.252Z,7.42
2023-02-15T13:10:46.959Z,7.57
2023-02-15T13:13:24.294Z,8.07
2023-02-15T13:15:55.485Z,8.00
2023-02-15T13:18:32.630Z,8.26
2023-02-15T13:21:07.995Z,8.98
2023-02-15T13:23:37.708Z,9.07
2023-02-15T13:26:09.138Z,8.68
2023-02-15T13:28:43.264Z,8.26
2023-02-15T13:31:17.078Z,8.60
2023-02-15T13:33:49.122Z,8.70
2023-02-15T13:36:24.159Z,8.64
2023-02-15T13:39:03.084Z,8.95
2023-02-15T13:41:36.979Z,9.25
2023-02-15T13:44:21.229Z,10.09
2023-02-15T13:47:03.882Z,9.88
2023-02-15T13:49:43.834Z,9.69
2023-02-15T13:52:23.123Z,9.19
2023-02-15T13:55:10.828Z,8.32
2023-02-15T13:57:51.990Z,8.47
2023-02-15T14:00:27.072Z,8.62
2023-02-15T14:03:10.708Z,8.90
2023-02-15T14:06:09.888Z,9.30
2023-02-15T14:08:49.467Z,9.43
2023-02-15T14:11:24.896Z,8.97
2023-02-15T14:14:18.791Z,8.99
2023-02-15T14:17:06.730Z,9.15
2023-02-15T14:19:39.815Z,9.64
2023-02-15T14:22:15.414Z,10.20
2023-02-15T14:24:47.384Z,10.50
2023-02-15T14:27:25.886Z,10.31
2023-02-15T14:29:57.850Z,9.95
2023-02-15T14:32:34.815Z,9.82
2023-02-15T14:35:05.115Z,10.48
2023-02-15T14:37:49.610Z,10.30
2023-02-15T14:40:39.380Z,9.89
2023-02-15T14:43:13.589Z,9.63
2023-02-15T14:45:46.713Z,9.90
2023-02-15T14:48:26.968Z,9.76
2023-02-15T14:50:56.548Z,9.31
2023-02-15T14:53:43.050Z,9.23
2023-02-15T14:56:25.816Z,9.03
2023-02-15T14:59:22.935Z,8.79
2023-02-15T15:02:02.282Z,8.23
2023-02-15T15:04:38.504Z,8.32
2023-02-15T15:07:16.460Z,8.24
2023-02-15T15:09:47.243Z,8.08
2023-02-15T15:12:32.925Z,8.20
2023-02-15T15:15:02.446Z,8.21
2023-02-15T15:18:00.192Z,8.02
2023-02-15T15:20:50.290Z,8.13
2023-02-15T15:23:43.188Z,9.82
2023-02-15T15:26:30.649Z,9.75
2023-02-15T15:29:02.415Z,9.74
2023-02-15T15:31:47.670Z,9.34
2023-02-15T15:34:24.732Z,8.89
2023-02-15T15:37:14.635Z,8.55
2023-02-15T15:40:19.169Z,8.37
2023-02-15T15:42:54.944Z,8.20
2023-02-15T15:45:45.038Z,8.08
2023-02-15T15:48:43.222Z,7.89
2023-02-15T15:51:16.553Z,7.75
2023-02-15T15:53:51.418Z,7.62
2023-02-15T15:56:23.014Z,7.49
2023-02-15T15:58:55.469Z,7.34
2023-02-15T16:01:32.448Z,7.18
2023-02-15T16:04:03.145Z,7.06
2023-02-15T16:06:37.892Z,6.79
2023-02-15T16:09:21.456Z,6.59
2023-02-15T16:11:52.278Z,6.51
2023-02-15T16:14:28.869Z,6.42
2023-02-15T16:16:59.573Z,6.23
2023-02-15T16:19:31.884Z,6.24
2023-02-15T16:22:02.786Z,6.23
2023-02-15T16:24:59.031Z,6.14
2023-02-15T16:27:49.323Z,6.04
2023-02-15T16:30:25.453Z,5.97
2023-02-15T16:32:57.167Z,5.85
2023-02-15T16:35:27.163Z,5.74
2023-02-15T16:37:56.575Z,5.69
2023-02-15T16:40:58.246Z,5.64
2023-02-15T16:43:30.238Z,5.69
2023-02-15T16:46:07.235Z,6.18
2023-02-15T16:48:39.061Z,6.24
2023-02-15T16:51:08.608Z,5.99
2023-02-15T16:53:38.271Z,5.82
2023-02-15T16:56:10.607Z,5.70
2023-02-15T16:58:43.834Z,5.57
2023-02-15T17:01:15.696Z,5.44
2023-02-15T17:03:46.126Z,5.62
2023-02-15T17:06:24.013Z,5.77
2023-02-15T17:08:53.463Z,5.89
2023-02-15T17:11:26.250Z,5.79
2023-02-15T17:14:19.019Z,5.92
2023-02-15T17:16:50.522Z,6.01
2023-02-15T17:19:23.778Z,5.69
2023-02-15T17:21:55.531Z,5.77
2023-02-15T17:24:34.961Z,5.86
2023-02-15T17:27:14.284Z,5.87
2023-02-15T17:29:44.728Z,5.83
2023-02-15T17:32:20.330Z,5.77
2023-02-15T17:35:05.141Z,5.74
2023-02-15T17:37:46.115Z,5.61
2023-02-15T17:40:24.012Z,5.48
2023-02-15T17:42:56.061Z,5.38
2023-02-15T17:45:26.470Z,5.16
2023-02-15T17:47:58.153Z,4.97
2023-02-15T17:50:29.240Z,4.84
2023-02-15T17:53:01.437Z,4.81
2023-02-15T17:55:43.635Z,4.70
2023-02-15T17:58:17.004Z,4.61
2023-02-15T18:01:01.310Z,4.46
2023-02-15T18:03:52.471Z,4.39
2023-02-15T18:06:34.484Z,4.38
2023-02-15T18:09:16.341Z,4.34
2023-02-15T18:11:48.735Z,4.40
2023-02-15T18:14:20.760Z,4.40
2023-02-15T18:16:50.268Z,4.53
2023-02-15T18:19:24.340Z,4.55
2023-02-15T18:21:57.665Z,4.66
2023-02-15T18:24:28.700Z,4.61
2023-02-15T18:26:58.392Z,4.48
2023-02-15T18:29:30.412Z,4.43
2023-02-15T18:32:00.374Z,4.42
2023-02-15T18:34:32.698Z,4.46
2023-02-15T18:37:03.455Z,4.41
2023-02-15T18:39:37.588Z,4.39
2023-02-15T18:42:07.712Z,4.25
2023-02-15T18:44:39.688Z,4.70
2023-02-15T18:47:09.139Z,5.73
2023-02-15T18:49:38.581Z,5.83
2023-02-15T18:52:08.278Z,5.17
2023-02-15T18:54:37.710Z,4.82
2023-02-15T18:57:07.141Z,4.82
2023-02-15T18:59:39.161Z,4.69
2023-02-15T19:02:14.843Z,4.85
2023-02-15T19:04:44.545Z,4.74
2023-02-15T19:07:19.589Z,4.75
2023-02-15T19:09:51.043Z,4.70
2023-02-15T19:12:20.644Z,4.60
2023-02-15T19:14:53.780Z,4.21
2023-02-15T19:17:24.249Z,3.98
2023-02-15T19:19:54.927Z,3.78
2023-02-15T19:22:28.311Z,3.73
2023-02-15T19:24:59.735Z,3.73
2023-02-15T19:27:31.924Z,3.77
2023-02-15T19:30:05.711Z,3.79
2023-02-15T19:32:35.220Z,3.80
2023-02-15T19:35:05.136Z,3.83
2023-02-15T19:37:37.928Z,3.72
2023-02-15T19:40:08.581Z,3.71
2023-02-15T19:42:37.978Z,3.74
2023-02-15T19:45:16.400Z,3.56
2023-02-15T19:47:48.109Z,3.47
2023-02-15T19:50:18.663Z,3.48
2023-02-15T19:52:49.041Z,3.49
2023-02-15T19:55:27.593Z,3.51
2023-02-15T19:57:58.063Z,3.43
2023-02-15T20:00:31.586Z,3.30
2023-02-15T20:03:01.854Z,3.22
2023-02-15T20:05:34.218Z,3.26
2023-02-15T20:08:04.447Z,3.15
2023-02-15T20:10:34.866Z,3.00
2023-02-15T20:13:04.763Z,2.96
2023-02-15T20:15:37.855Z,2.99
2023-02-15T20:18:07.597Z,3.02
2023-02-15T20:20:42.537Z,3.09
2023-02-15T20:23:20.809Z,2.93
2023-02-15T20:25:50.887Z,2.88
2023-02-15T20:28:21.882Z,2.88
2023-02-15T20:30:54.262Z,2.84
2023-02-15T20:33:24.252Z,2.88
2023-02-15T20:35:54.247Z,2.92
2023-02-15T20:38:26.575Z,2.89
2023-02-15T20:41:09.193Z,2.95
2023-02-15T20:43:38.576Z,2.96
2023-02-15T20:46:10.937Z,2.94
2023-02-15T20:48:40.655Z,2.93
2023-02-15T20:51:14.714Z,2.90
2023-02-15T20:53:44.261Z,2.95
2023-02-15T20:56:18.435Z,3.00
2023-02-15T20:58:47.901Z,2.97
2023-02-15T21:01:20.543Z,2.93
2023-02-15T21:03:50.219Z,2.87
2023-02-15T21:06:20.506Z,2.95
2023-02-15T21:08:49.889Z,2.90
2023-02-15T21:11:21.253Z,2.88
2023-02-15T21:13:51.139Z,2.90
2023-02-15T21:16:23.243Z,2.81
2023-02-15T21:18:52.690Z,2.72
2023-02-15T21:21:25.628Z,2.65
2023-02-15T21:23:55.769Z,2.65
2023-02-15T21:26:25.833Z,2.59
2023-02-15T21:28:56.762Z,2.73
2023-02-15T21:31:29.425Z,2.59
2023-02-15T21:33:58.933Z,2.57
2023-02-15T21:36:28.428Z,2.55
2023-02-15T21:38:57.923Z,2.59
2023-02-15T21:41:40.207Z,2.51
2023-02-15T21:44:30.779Z,2.51
2023-02-15T21:47:15.530Z,2.41
2023-02-15T21:49:44.946Z,2.47
2023-02-15T21:52:12.895Z,2.47
2023-02-15T21:54:43.070Z,2.32
2023-02-15T21:57:16.715Z,2.24
2023-02-15T21:59:47.210Z,2.36
2023-02-15T22:02:30.184Z,2.33
2023-02-15T22:05:00.011Z,2.18
2023-02-15T22:07:29.463Z,2.50
2023-02-15T22:09:58.830Z,2.59
2023-02-15T22:12:28.291Z,2.64
2023-02-15T22:14:57.697Z,2.90
2023-02-15T22:17:30.172Z,2.88
2023-02-15T22:20:00.555Z,2.91
2023-02-15T22:22:30.912Z,2.92
2023-02-15T22:25:00.297Z,2.65
2023-02-15T22:27:31.634Z,2.42
2023-02-15T22:30:01.104Z,2.37
2023-02-15T22:32:33.261Z,2.19
2023-02-15T22:35:02.722Z,2.12
2023-02-15T22:37:35.233Z,2.33
2023-02-15T22:40:04.635Z,2.64
2023-02-15T22:42:34.051Z,2.46
2023-02-15T22:45:03.486Z,2.38
2023-02-15T22:47:35.874Z,2.42
2023-02-15T22:50:05.299Z,2.37
2023-02-15T22:52:34.748Z,2.22
2023-02-15T22:55:04.182Z,2.24
2023-02-15T22:57:34.953Z,2.22
2023-02-15T23:00:04.979Z,2.16
2023-02-15T23:02:36.984Z,2.07
2023-02-15T23:05:06.563Z,2.00
2023-02-15T23:07:36.003Z,1.98
2023-02-15T23:10:05.416Z,1.91
2023-02-15T23:12:56.247Z,1.93
2023-02-15T23:15:25.790Z,1.93
2023-02-15T23:17:57.752Z,2.00
2023-02-15T23:20:28.461Z,1.97
2023-02-15T23:22:57.892Z,2.01
2023-02-15T23:25:28.072Z,2.01
2023-02-15T23:28:00.420Z,2.01
2023-02-15T23:30:30.282Z,2.05
2023-02-15T23:33:02.303Z,2.02
2023-02-15T23:35:31.820Z,1.98
2023-02-15T23:38:01.248Z,2.01
2023-02-15T23:40:58.011Z,1.95
2023-02-15T23:43:27.405Z,2.01
2023-02-15T23:45:56.891Z,2.01
2023-02-15T23:48:33.514Z,2.05
2023-02-15T23:51:03.732Z,2.01
2023-02-15T23:53:33.478Z,2.05
2023-02-15T23:56:03.377Z,2.04
2023-02-15T23:58:40.306Z,2.06
